Time;durP1;ratioP1;P1;durP2;ratioP2;P2;SDS_P1;SDS_P2;PMS_P1;PMS_P2;Temp;Humidity;BMP_temperature;BMP_pressure;BME280_temperature;BME280_humidity;BME280_pressure;Samples;Min_cycle;Max_cycle;Signal;HPM_P1;HPM_P2
2021/10/06 00:00:05;;;;;;;;;;;10.60;99.90;;;;;;5065170;28;20400;-75
2021/10/06 00:02:32;;;;;;;;;;;10.60;99.90;;;;;;5053957;28;19925;-74
2021/10/06 00:04:59;;;;;;;;;;;10.60;99.90;;;;;;5055686;28;20298;-75
2021/10/06 00:07:26;;;;;;;;;;;10.60;99.90;;;;;;5071577;28;19930;-75
2021/10/06 00:09:52;;;;;;;;;;;10.60;99.90;;;;;;5067697;28;19931;-76
2021/10/06 00:12:20;;;;;;;;;;;10.50;99.90;;;;;;5059201;28;19934;-75
2021/10/06 00:14:47;;;;;;;;;;;10.50;99.90;;;;;;5057084;28;19925;-75
2021/10/06 00:17:13;;;;;;;;;;;10.60;99.90;;;;;;5068954;28;19947;-75
2021/10/06 00:19:40;;;;;;;;;;;10.50;99.90;;;;;;5062554;28;20372;-76
2021/10/06 00:22:07;;;;;;;;;;;10.50;99.90;;;;;;5064255;28;19925;-76
2021/10/06 00:24:33;;;;;;;;;;;10.50;99.90;;;;;;5058813;28;19925;-75
2021/10/06 00:27:00;;;;;;;;;;;10.60;99.90;;;;;;5070319;28;19924;-76
2021/10/06 00:29:28;;;;;;;;;;;10.60;99.90;;;;;;5058489;28;19925;-76
2021/10/06 00:31:55;;;;;;;;;;;10.60;99.90;;;;;;5055781;28;19931;-75
2021/10/06 00:34:22;;;;;;;;;;;10.50;99.90;;;;;;5059988;28;20046;-75
2021/10/06 00:36:49;;;;;;;;;;;10.60;99.90;;;;;;5061606;28;20414;-75
2021/10/06 00:39:15;;;;;;;;;;;10.60;99.90;;;;;;5056183;28;19932;-75
2021/10/06 00:41:42;;;;;;;;;;;10.60;99.90;;;;;;5070063;28;19931;-75
2021/10/06 00:44:14;;;;;;;;;;;10.60;99.90;;;;;;5057789;28;19933;-75
2021/10/06 00:46:42;;;;;;;;;;;10.70;99.90;;;;;;5053549;28;19931;-76
2021/10/06 00:49:08;;;;;;;;;;;10.70;99.90;;;;;;5058068;28;19924;-76
2021/10/06 00:51:35;;;;;;;;;;;10.80;99.90;;;;;;5056980;28;19924;-75
2021/10/06 00:54:02;;;;;;;;;;;10.90;99.90;;;;;;5057243;28;19925;-76
2021/10/06 00:56:28;;;;;;;;;;;11.00;99.90;;;;;;5073698;28;19931;-76
2021/10/06 00:58:55;;;;;;;;;;;11.00;99.90;;;;;;5069442;28;19924;-76
2021/10/06 01:01:22;;;;;;;;;;;11.10;99.90;;;;;;5053659;28;19924;-76
2021/10/06 01:03:50;;;;;;;;;;;11.10;99.90;;;;;;5054790;28;19928;-76
2021/10/06 01:06:16;;;;;;;;;;;11.10;99.90;;;;;;5071111;28;19924;-76
2021/10/06 01:08:43;;;;;;;;;;;11.10;99.90;;;;;;5071537;28;20311;-76
2021/10/06 01:11:11;;;;;;;;;;;11.00;99.90;;;;;;5066058;28;20371;-75
2021/10/06 01:13:37;;;;;;;;;;;11.10;99.90;;;;;;5062993;28;19931;-75
2021/10/06 01:16:04;;;;;;;;;;;11.10;99.90;;;;;;5054092;28;21585;-75
2021/10/06 01:18:31;;;;;;;;;;;11.00;99.90;;;;;;5053103;28;20371;-75
2021/10/06 01:21:02;;;;;;;;;;;11.00;99.90;;;;;;5063335;28;19925;-75
2021/10/06 01:23:30;;;;;;;;;;;10.90;99.90;;;;;;5056618;28;19925;-75
2021/10/06 01:25:56;;;;;;;;;;;10.90;99.90;;;;;;5054177;28;19925;-75
2021/10/06 01:28:23;;;;;;;;;;;10.80;99.90;;;;;;5053390;28;19925;-75
2021/10/06 01:30:49;;;;;;;;;;;10.70;99.90;;;;;;5055854;28;19930;-76
2021/10/06 01:33:16;;;;;;;;;;;10.60;99.90;;;;;;5053516;28;20356;-75
2021/10/06 01:35:43;;;;;;;;;;;10.50;99.90;;;;;;5058008;28;19925;-75
2021/10/06 01:38:09;;;;;;;;;;;10.50;99.90;;;;;;5067635;28;20019;-75
2021/10/06 01:40:37;;;;;;;;;;;10.50;99.90;;;;;;5066404;28;19931;-74
2021/10/06 01:43:04;;;;;;;;;;;10.50;99.90;;;;;;5052691;28;19924;-74
2021/10/06 01:45:31;;;;;;;;;;;10.50;99.90;;;;;;5059574;28;20295;-75
2021/10/06 01:48:03;;;;;;;;;;;10.40;99.90;;;;;;5052688;28;19931;-74
2021/10/06 01:50:30;;;;;;;;;;;10.40;99.90;;;;;;5063676;28;19924;-74
2021/10/06 01:52:57;;;;;;;;;;;10.50;99.90;;;;;;5071337;28;19924;-74
2021/10/06 01:55:24;;;;;;;;;;;10.60;99.90;;;;;;5070803;28;19924;-75
2021/10/06 01:57:52;;;;;;;;;;;10.60;99.90;;;;;;5055202;28;19928;-75
2021/10/06 02:00:19;;;;;;;;;;;10.60;99.90;;;;;;5062535;28;19924;-75
2021/10/06 02:02:45;;;;;;;;;;;10.50;99.90;;;;;;5059496;28;19928;-75
2021/10/06 02:05:12;;;;;;;;;;;10.50;99.90;;;;;;5064186;28;20331;-75
2021/10/06 02:07:39;;;;;;;;;;;10.50;99.90;;;;;;5061279;28;19925;-75
2021/10/06 02:10:06;;;;;;;;;;;10.40;99.90;;;;;;5053050;28;19924;-75
2021/10/06 02:12:33;;;;;;;;;;;10.50;99.90;;;;;;5056286;28;19931;-75
2021/10/06 02:15:01;;;;;;;;;;;10.50;99.90;;;;;;5065692;28;19924;-76
2021/10/06 02:17:27;;;;;;;;;;;10.60;99.90;;;;;;5067356;28;19954;-76
2021/10/06 02:19:54;;;;;;;;;;;10.60;99.90;;;;;;5058748;28;19924;-76
2021/10/06 02:22:20;;;;;;;;;;;10.70;99.90;;;;;;5052450;28;19925;-75
2021/10/06 02:24:47;;;;;;;;;;;10.80;99.90;;;;;;5068057;28;19924;-75
2021/10/06 02:27:14;;;;;;;;;;;10.80;99.90;;;;;;5055738;28;19935;-75
2021/10/06 02:29:40;;;;;;;;;;;10.80;99.90;;;;;;5050298;28;19936;-75
2021/10/06 02:32:08;;;;;;;;;;;10.90;99.90;;;;;;5052889;28;20001;-75
2021/10/06 02:34:37;;;;;;;;;;;11.00;99.90;;;;;;5064769;28;20409;-74
2021/10/06 02:37:04;;;;;;;;;;;11.00;99.90;;;;;;5071728;28;19924;-76
2021/10/06 02:39:31;;;;;;;;;;;11.00;99.90;;;;;;5062923;28;19928;-75
2021/10/06 02:41:57;;;;;;;;;;;11.00;99.90;;;;;;5072259;28;19925;-75
2021/10/06 02:44:24;;;;;;;;;;;11.00;99.90;;;;;;5063668;28;19925;-75
2021/10/06 02:46:51;;;;;;;;;;;11.00;99.90;;;;;;5056717;28;19935;-75
2021/10/06 02:49:19;;;;;;;;;;;11.00;99.90;;;;;;5059019;28;19925;-74
2021/10/06 02:51:45;;;;;;;;;;;11.00;99.90;;;;;;5069982;28;19924;-75
2021/10/06 02:54:12;;;;;;;;;;;11.00;99.90;;;;;;5063427;28;19932;-75
2021/10/06 02:56:39;;;;;;;;;;;11.00;99.90;;;;;;5070488;28;19925;-75
2021/10/06 02:59:05;;;;;;;;;;;11.00;99.90;;;;;;5061692;28;20411;-74
2021/10/06 03:01:32;;;;;;;;;;;10.90;99.90;;;;;;5057929;28;20391;-75
2021/10/06 03:03:59;;;;;;;;;;;10.90;99.90;;;;;;5055590;28;19926;-75
2021/10/06 03:06:27;;;;;;;;;;;10.90;99.90;;;;;;5064512;28;20221;-75
2021/10/06 03:08:54;;;;;;;;;;;10.90;99.90;;;;;;5054514;28;20008;-74
2021/10/06 03:11:21;;;;;;;;;;;10.90;99.90;;;;;;5060905;28;19925;-74
2021/10/06 03:13:48;;;;;;;;;;;10.90;99.90;;;;;;5059030;28;19928;-75
2021/10/06 03:16:14;;;;;;;;;;;10.90;99.90;;;;;;5069068;28;19947;-75
2021/10/06 03:18:41;;;;;;;;;;;10.90;99.90;;;;;;5062505;28;19927;-75
2021/10/06 03:21:08;;;;;;;;;;;10.90;99.90;;;;;;5066091;28;20409;-75
2021/10/06 03:23:35;;;;;;;;;;;10.90;99.90;;;;;;5055417;28;19931;-75
2021/10/06 03:26:02;;;;;;;;;;;10.90;99.90;;;;;;5067315;28;19932;-75
2021/10/06 03:28:29;;;;;;;;;;;10.90;99.90;;;;;;5061488;28;20367;-76
2021/10/06 03:30:55;;;;;;;;;;;11.00;99.90;;;;;;5061058;28;19931;-76
2021/10/06 03:33:22;;;;;;;;;;;10.90;99.90;;;;;;5064611;28;19932;-75
2021/10/06 03:35:49;;;;;;;;;;;11.00;99.90;;;;;;5070712;28;19932;-75
2021/10/06 03:38:15;;;;;;;;;;;11.00;99.90;;;;;;5071851;28;19939;-75
2021/10/06 03:40:43;;;;;;;;;;;11.00;99.90;;;;;;5062085;28;20019;-74
2021/10/06 03:43:10;;;;;;;;;;;11.00;99.90;;;;;;5056621;28;19925;-74
2021/10/06 03:45:37;;;;;;;;;;;11.00;99.90;;;;;;5069799;28;19931;-74
2021/10/06 03:48:04;;;;;;;;;;;11.10;99.90;;;;;;5070594;28;19931;-74
2021/10/06 03:50:30;;;;;;;;;;;11.10;99.90;;;;;;5064432;28;19979;-74
2021/10/06 03:52:57;;;;;;;;;;;11.10;99.90;;;;;;5056228;28;20325;-74
2021/10/06 03:55:24;;;;;;;;;;;11.10;99.90;;;;;;5064993;28;20118;-74
2021/10/06 03:57:52;;;;;;;;;;;11.10;99.90;;;;;;5065463;28;20128;-75
2021/10/06 04:00:18;;;;;;;;;;;11.10;99.90;;;;;;5063217;28;19931;-75
2021/10/06 04:02:45;;;;;;;;;;;11.10;99.90;;;;;;5055164;28;19931;-74
2021/10/06 04:05:12;;;;;;;;;;;11.10;99.90;;;;;;5060066;28;19925;-75
2021/10/06 04:07:38;;;;;;;;;;;11.10;99.90;;;;;;5072579;28;19924;-75
2021/10/06 04:10:05;;;;;;;;;;;11.10;99.90;;;;;;5069428;28;19931;-75
2021/10/06 04:12:32;;;;;;;;;;;11.10;99.90;;;;;;5061404;28;19925;-75
2021/10/06 04:15:00;;;;;;;;;;;11.10;99.90;;;;;;5055357;28;19925;-75
2021/10/06 04:17:27;;;;;;;;;;;11.10;99.90;;;;;;5064088;28;19925;-75
2021/10/06 04:19:53;;;;;;;;;;;11.10;99.90;;;;;;5056869;28;19925;-75
2021/10/06 04:22:20;;;;;;;;;;;11.20;99.90;;;;;;5064084;28;20019;-74
2021/10/06 04:24:47;;;;;;;;;;;11.20;99.90;;;;;;5056197;28;19931;-75
2021/10/06 04:27:13;;;;;;;;;;;11.20;99.90;;;;;;5065580;28;19925;-75
2021/10/06 04:29:40;;;;;;;;;;;11.10;99.90;;;;;;5057254;28;20529;-74
2021/10/06 04:32:08;;;;;;;;;;;11.10;99.90;;;;;;5070581;28;19932;-74
2021/10/06 04:34:35;;;;;;;;;;;11.10;99.90;;;;;;5062601;28;19932;-74
2021/10/06 04:37:02;;;;;;;;;;;11.00;99.90;;;;;;5062626;28;20027;-74
2021/10/06 04:39:28;;;;;;;;;;;11.00;99.90;;;;;;5066131;28;19924;-74
2021/10/06 04:41:55;;;;;;;;;;;11.00;99.90;;;;;;5053663;28;19933;-74
2021/10/06 04:44:21;;;;;;;;;;;11.00;99.90;;;;;;5055967;28;19928;-75
2021/10/06 04:46:48;;;;;;;;;;;11.00;99.90;;;;;;5061711;28;20067;-75
2021/10/06 04:49:17;;;;;;;;;;;11.00;99.90;;;;;;5059571;28;20443;-74
2021/10/06 04:51:44;;;;;;;;;;;10.90;99.90;;;;;;5064964;28;20289;-76
2021/10/06 04:54:10;;;;;;;;;;;10.90;99.90;;;;;;5054700;28;20455;-74
2021/10/06 04:56:37;;;;;;;;;;;10.80;99.90;;;;;;5055180;28;19946;-74
2021/10/06 04:59:03;;;;;;;;;;;10.80;99.90;;;;;;5069376;28;19925;-74
2021/10/06 05:01:30;;;;;;;;;;;10.80;99.90;;;;;;5063174;28;19931;-75
2021/10/06 05:03:57;;;;;;;;;;;10.80;99.90;;;;;;5065106;28;19960;-75
2021/10/06 05:06:25;;;;;;;;;;;10.70;99.90;;;;;;5064791;28;20386;-74
2021/10/06 05:08:52;;;;;;;;;;;10.70;99.90;;;;;;5064352;28;19925;-75
2021/10/06 05:11:18;;;;;;;;;;;10.70;99.90;;;;;;5052382;28;19976;-74
2021/10/06 05:13:45;;;;;;;;;;;10.60;99.90;;;;;;5061365;28;19925;-77
2021/10/06 05:16:12;;;;;;;;;;;10.60;99.90;;;;;;5055455;28;19935;-75
2021/10/06 05:18:38;;;;;;;;;;;10.70;99.90;;;;;;5066119;28;19924;-75
2021/10/06 05:21:05;;;;;;;;;;;10.70;99.90;;;;;;5060237;28;19935;-74
2021/10/06 05:23:33;;;;;;;;;;;10.70;99.90;;;;;;5056292;28;19930;-75
2021/10/06 05:26:00;;;;;;;;;;;10.70;99.90;;;;;;5056133;28;19950;-75
2021/10/06 05:28:26;;;;;;;;;;;10.70;99.90;;;;;;5049139;28;20011;-75
2021/10/06 05:30:55;;;;;;;;;;;10.60;99.90;;;;;;5054361;28;20015;-75
2021/10/06 05:33:21;;;;;;;;;;;10.50;99.90;;;;;;5062307;28;19929;-75
2021/10/06 05:35:48;;;;;;;;;;;10.40;99.90;;;;;;5054289;28;19929;-75
2021/10/06 05:38:15;;;;;;;;;;;10.40;99.90;;;;;;5055136;28;20406;-74
2021/10/06 05:40:43;;;;;;;;;;;10.40;99.90;;;;;;5054827;28;20626;-75
2021/10/06 05:43:10;;;;;;;;;;;10.40;99.90;;;;;;5058797;28;20598;-75
2021/10/06 05:45:37;;;;;;;;;;;10.30;99.90;;;;;;5057895;28;20019;-75
2021/10/06 05:48:03;;;;;;;;;;;10.30;99.90;;;;;;5065658;28;19925;-75
2021/10/06 05:50:30;;;;;;;;;;;10.30;99.90;;;;;;5055600;28;19925;-75
2021/10/06 05:52:58;;;;;;;;;;;10.30;99.90;;;;;;5053106;28;20280;-75
2021/10/06 05:55:25;;;;;;;;;;;10.20;99.90;;;;;;5052381;28;19932;-75
2021/10/06 05:57:53;;;;;;;;;;;10.20;99.90;;;;;;5050043;28;19929;-76
2021/10/06 06:00:20;;;;;;;;;;;10.20;99.90;;;;;;5054794;28;20045;-76
2021/10/06 06:02:47;;;;;;;;;;;10.20;99.90;;;;;;5061362;28;19931;-75
2021/10/06 06:05:14;;;;;;;;;;;10.20;99.90;;;;;;5052717;28;20011;-75
2021/10/06 06:07:40;;;;;;;;;;;10.20;99.90;;;;;;5062096;28;19925;-75
2021/10/06 06:10:07;;;;;;;;;;;10.20;99.90;;;;;;5056301;28;19928;-75
2021/10/06 06:12:34;;;;;;;;;;;10.20;99.90;;;;;;5059354;28;20387;-73
2021/10/06 06:15:02;;;;;;;;;;;10.30;99.90;;;;;;5056563;28;20023;-75
2021/10/06 06:17:29;;;;;;;;;;;10.20;99.90;;;;;;5057526;28;19950;-74
2021/10/06 06:19:56;;;;;;;;;;;10.20;99.90;;;;;;5058302;28;20357;-74
2021/10/06 06:22:22;;;;;;;;;;;10.20;99.90;;;;;;5051860;28;19924;-76
2021/10/06 06:24:49;;;;;;;;;;;10.20;99.90;;;;;;5065520;28;20639;-77
2021/10/06 06:27:16;;;;;;;;;;;10.20;99.90;;;;;;5050293;28;20299;-75
2021/10/06 06:29:44;;;;;;;;;;;10.20;99.90;;;;;;5056486;28;19951;-75
2021/10/06 06:32:12;;;;;;;;;;;10.20;99.90;;;;;;5052161;28;19924;-75
2021/10/06 06:34:38;;;;;;;;;;;10.20;99.90;;;;;;5057325;28;19925;-75
2021/10/06 06:37:05;;;;;;;;;;;10.20;99.90;;;;;;5056073;28;19925;-74
2021/10/06 06:39:31;;;;;;;;;;;10.20;99.90;;;;;;5054488;28;19928;-74
2021/10/06 06:41:58;;;;;;;;;;;10.20;99.90;;;;;;5067728;28;20007;-75
2021/10/06 06:44:25;;;;;;;;;;;10.20;99.90;;;;;;5060507;28;20340;-75
2021/10/06 06:46:51;;;;;;;;;;;10.20;99.90;;;;;;5065661;28;20405;-75
2021/10/06 06:49:19;;;;;;;;;;;10.10;99.90;;;;;;5058857;28;20012;-75
2021/10/06 06:51:46;;;;;;;;;;;10.10;99.90;;;;;;5065493;28;20401;-73
2021/10/06 06:54:13;;;;;;;;;;;10.10;99.90;;;;;;5066523;28;19955;-74
2021/10/06 06:56:39;;;;;;;;;;;10.10;99.90;;;;;;5069375;28;20385;-75
2021/10/06 06:59:07;;;;;;;;;;;10.10;99.90;;;;;;5058740;28;19928;-74
2021/10/06 07:01:33;;;;;;;;;;;10.10;99.90;;;;;;5064904;28;20083;-75
2021/10/06 07:04:00;;;;;;;;;;;10.10;99.90;;;;;;5052637;28;19925;-74
2021/10/06 07:06:33;;;;;;;;;;;10.10;99.90;;;;;;5052913;28;19925;-74
2021/10/06 07:09:00;;;;;;;;;;;10.20;99.90;;;;;;5060995;28;19989;-75
2021/10/06 07:11:27;;;;;;;;;;;10.20;99.90;;;;;;5051915;28;19950;-74
2021/10/06 07:13:53;;;;;;;;;;;10.20;99.90;;;;;;5052812;28;20017;-74
2021/10/06 07:16:20;;;;;;;;;;;10.20;99.90;;;;;;5068494;28;20007;-74
2021/10/06 07:18:47;;;;;;;;;;;10.20;99.90;;;;;;5057469;28;20276;-74
2021/10/06 07:21:13;;;;;;;;;;;10.20;99.90;;;;;;5065467;28;19987;-74
2021/10/06 07:23:41;;;;;;;;;;;10.10;99.90;;;;;;5053919;28;19925;-74
2021/10/06 07:26:08;;;;;;;;;;;10.10;99.90;;;;;;5068111;28;19948;-74
2021/10/06 07:28:35;;;;;;;;;;;10.10;99.90;;;;;;5055008;28;19946;-74
2021/10/06 07:31:01;;;;;;;;;;;10.10;99.90;;;;;;5067267;28;19924;-74
2021/10/06 07:33:28;;;;;;;;;;;10.10;99.90;;;;;;5055665;28;19931;-74
2021/10/06 07:35:55;;;;;;;;;;;10.10;99.90;;;;;;5069563;28;19924;-75
2021/10/06 07:38:21;;;;;;;;;;;10.10;99.90;;;;;;5063428;28;19924;-74
2021/10/06 07:40:49;;;;;;;;;;;10.10;99.90;;;;;;5063577;28;19933;-75
2021/10/06 07:43:16;;;;;;;;;;;10.10;99.90;;;;;;5060306;28;19931;-74
2021/10/06 07:45:44;;;;;;;;;;;10.10;99.90;;;;;;5072526;28;19925;-75
2021/10/06 07:48:11;;;;;;;;;;;10.10;99.90;;;;;;5069216;28;19931;-75
2021/10/06 07:50:37;;;;;;;;;;;10.10;99.90;;;;;;5067000;28;19931;-74
2021/10/06 07:53:04;;;;;;;;;;;10.10;99.90;;;;;;5068374;28;20019;-75
2021/10/06 07:55:31;;;;;;;;;;;10.20;99.90;;;;;;5056169;28;20396;-74
2021/10/06 07:57:58;;;;;;;;;;;10.20;99.90;;;;;;5056667;28;20375;-74
2021/10/06 08:00:25;;;;;;;;;;;10.20;99.90;;;;;;5060748;28;19953;-74
2021/10/06 08:02:52;;;;;;;;;;;10.30;99.90;;;;;;5058697;28;19924;-76
2021/10/06 08:05:18;;;;;;;;;;;10.30;99.90;;;;;;5056940;28;20511;-76
2021/10/06 08:07:45;;;;;;;;;;;10.30;99.90;;;;;;5056898;28;19972;-73
2021/10/06 08:10:12;;;;;;;;;;;10.30;99.90;;;;;;5064723;28;19947;-76
2021/10/06 08:12:38;;;;;;;;;;;10.30;99.90;;;;;;5057424;28;20012;-74
2021/10/06 08:15:07;;;;;;;;;;;10.40;99.90;;;;;;5060118;28;20028;-73
2021/10/06 08:17:34;;;;;;;;;;;10.50;99.90;;;;;;5063544;28;19931;-75
2021/10/06 08:20:01;;;;;;;;;;;10.50;99.90;;;;;;5058085;28;20019;-76
2021/10/06 08:22:27;;;;;;;;;;;10.50;99.90;;;;;;5063479;28;19931;-75
2021/10/06 08:24:54;;;;;;;;;;;10.50;99.90;;;;;;5061663;28;19924;-75
2021/10/06 08:27:21;;;;;;;;;;;10.70;99.90;;;;;;5073261;28;19924;-74
2021/10/06 08:29:47;;;;;;;;;;;10.70;99.90;;;;;;5059300;28;20011;-75
2021/10/06 08:32:15;;;;;;;;;;;10.70;99.90;;;;;;5063843;28;19970;-75
2021/10/06 08:34:42;;;;;;;;;;;10.60;99.90;;;;;;5060446;28;20375;-74
2021/10/06 08:37:09;;;;;;;;;;;10.70;99.90;;;;;;5055231;28;20310;-75
2021/10/06 08:39:35;;;;;;;;;;;10.70;99.90;;;;;;5059743;28;20264;-74
2021/10/06 08:42:04;;;;;;;;;;;10.70;99.90;;;;;;5068821;28;20064;-74
2021/10/06 08:44:32;;;;;;;;;;;10.70;99.90;;;;;;5060232;28;20398;-74
2021/10/06 08:46:59;;;;;;;;;;;10.70;99.90;;;;;;5057983;28;19928;-74
2021/10/06 08:49:27;;;;;;;;;;;10.70;99.90;;;;;;5056419;28;19993;-74
2021/10/06 08:51:54;;;;;;;;;;;10.70;99.90;;;;;;5057968;28;20360;-74
2021/10/06 08:54:21;;;;;;;;;;;10.80;99.90;;;;;;5054447;28;19928;-74
2021/10/06 08:56:48;;;;;;;;;;;10.80;99.90;;;;;;5056783;28;19932;-74
2021/10/06 08:59:15;;;;;;;;;;;10.80;99.90;;;;;;5054484;28;20037;-74
2021/10/06 09:01:42;;;;;;;;;;;10.80;99.90;;;;;;5063660;28;19969;-74
2021/10/06 09:04:09;;;;;;;;;;;10.70;99.90;;;;;;5053022;28;19939;-74
2021/10/06 09:06:38;;;;;;;;;;;10.70;99.90;;;;;;5065958;28;19933;-75
2021/10/06 09:09:11;;;;;;;;;;;10.70;99.90;;;;;;5060960;28;19924;-75
2021/10/06 09:11:38;;;;;;;;;;;10.70;99.90;;;;;;5059470;28;19925;-81
2021/10/06 09:14:06;;;;;;;;;;;10.70;99.90;;;;;;5052602;28;19932;-77
2021/10/06 09:16:33;;;;;;;;;;;10.70;99.90;;;;;;5062368;28;19931;-76
2021/10/06 09:19:00;;;;;;;;;;;10.80;99.90;;;;;;5063333;28;20007;-74
2021/10/06 09:21:26;;;;;;;;;;;10.90;99.90;;;;;;5058678;28;19924;-74
2021/10/06 09:23:55;;;;;;;;;;;10.90;99.90;;;;;;5052089;28;19928;-74
2021/10/06 09:26:21;;;;;;;;;;;10.90;99.90;;;;;;5059068;28;19930;-74
2021/10/06 09:28:50;;;;;;;;;;;10.90;99.90;;;;;;5053166;28;19932;-74
2021/10/06 09:31:18;;;;;;;;;;;10.90;99.90;;;;;;5065274;28;19936;-74
2021/10/06 09:33:46;;;;;;;;;;;10.80;99.90;;;;;;5054607;28;19979;-75
2021/10/06 09:36:14;;;;;;;;;;;10.80;99.90;;;;;;5069068;28;19924;-75
2021/10/06 09:38:51;;;;;;;;;;;10.80;99.90;;;;;;5061635;28;19925;-75
2021/10/06 09:41:29;;;;;;;;;;;10.80;99.90;;;;;;5052733;28;19924;-75
2021/10/06 09:43:57;;;;;;;;;;;10.90;99.90;;;;;;5069424;28;19931;-75
2021/10/06 09:46:30;;;;;;;;;;;10.90;99.90;;;;;;5050837;28;20385;-75
2021/10/06 09:48:56;;;;;;;;;;;11.00;99.90;;;;;;5057578;28;20008;-75
2021/10/06 09:51:24;;;;;;;;;;;11.00;99.90;;;;;;5053781;28;19929;-75
2021/10/06 09:53:51;;;;;;;;;;;11.10;99.90;;;;;;5058181;28;19924;-75
2021/10/06 09:56:18;;;;;;;;;;;11.10;99.90;;;;;;5059236;28;19991;-75
2021/10/06 09:58:48;;;;;;;;;;;11.10;99.90;;;;;;5066995;28;19980;-77
2021/10/06 10:01:15;;;;;;;;;;;11.10;99.90;;;;;;5053569;28;20016;-75
2021/10/06 10:03:42;;;;;;;;;;;11.20;99.90;;;;;;5062774;28;19925;-74
2021/10/06 10:06:09;;;;;;;;;;;11.20;99.90;;;;;;5055479;28;20011;-76
2021/10/06 10:08:35;;;;;;;;;;;11.20;99.90;;;;;;5058029;28;19931;-75
2021/10/06 10:11:02;;;;;;;;;;;11.20;99.90;;;;;;5060556;28;19924;-75
2021/10/06 10:13:29;;;;;;;;;;;11.20;99.90;;;;;;5051501;28;19928;-75
2021/10/06 10:15:58;;;;;;;;;;;11.10;99.90;;;;;;5062141;28;19987;-74
2021/10/06 10:18:25;;;;;;;;;;;11.20;99.90;;;;;;5061222;28;19932;-75
2021/10/06 10:20:56;;;;;;;;;;;11.20;99.90;;;;;;5055144;28;19924;-75
2021/10/06 10:23:25;;;;;;;;;;;11.20;99.90;;;;;;5060031;28;19934;-75
2021/10/06 10:25:51;;;;;;;;;;;11.30;99.90;;;;;;5064512;28;19924;-75
2021/10/06 10:28:20;;;;;;;;;;;11.40;99.90;;;;;;5065590;28;20016;-75
2021/10/06 10:31:04;;;;;;;;;;;11.40;99.90;;;;;;5060470;28;19924;-75
2021/10/06 10:33:40;;;;;;;;;;;11.50;99.90;;;;;;5045993;28;19925;-76
2021/10/06 10:36:40;;;;;;;;;;;11.60;99.90;;;;;;5051913;28;20382;-75
2021/10/06 10:39:07;;;;;;;;;;;11.80;99.90;;;;;;5052789;28;20351;-76
2021/10/06 10:41:43;;;;;;;;;;;12.00;99.90;;;;;;5060068;28;20610;-75
2021/10/06 10:44:10;;;;;;;;;;;12.20;99.90;;;;;;5052050;28;22318;-74
2021/10/06 10:46:52;;;;;;;;;;;12.40;99.90;;;;;;5058657;28;19931;-75
2021/10/06 10:49:20;;;;;;;;;;;12.60;99.90;;;;;;5052263;28;20063;-75
2021/10/06 10:51:55;;;;;;;;;;;12.70;99.90;;;;;;5051716;28;19925;-75
2021/10/06 10:54:31;;;;;;;;;;;12.70;99.90;;;;;;5058482;28;19929;-75
2021/10/06 10:56:58;;;;;;;;;;;12.70;99.90;;;;;;5059159;28;19924;-75
2021/10/06 10:59:25;;;;;;;;;;;12.80;99.90;;;;;;5060191;28;20434;-75
2021/10/06 11:01:53;;;;;;;;;;;12.90;99.90;;;;;;5059768;28;20303;-75
2021/10/06 11:04:23;;;;;;;;;;;13.00;99.90;;;;;;5053553;28;19925;-75
2021/10/06 11:06:51;;;;;;;;;;;13.00;99.90;;;;;;5061582;28;19928;-75
2021/10/06 11:09:39;;;;;;;;;;;13.10;99.90;;;;;;5059813;28;19925;-75
2021/10/06 11:12:24;;;;;;;;;;;13.30;99.90;;;;;;5058195;28;20271;-75
2021/10/06 11:15:07;;;;;;;;;;;13.50;99.90;;;;;;5060310;28;20370;-75
2021/10/06 11:17:33;;;;;;;;;;;13.90;99.90;;;;;;5062201;28;20410;-75
2021/10/06 11:20:01;;;;;;;;;;;14.00;99.90;;;;;;5059962;28;19960;-75
2021/10/06 11:22:43;;;;;;;;;;;14.10;99.90;;;;;;5069160;28;19935;-76
2021/10/06 11:25:10;;;;;;;;;;;13.60;99.90;;;;;;5055917;28;19951;-76
2021/10/06 11:27:47;;;;;;;;;;;13.40;99.90;;;;;;5070632;28;19932;-76
2021/10/06 11:30:14;;;;;;;;;;;13.40;99.90;;;;;;5061363;28;19978;-76
2021/10/06 11:32:47;;;;;;;;;;;13.50;99.90;;;;;;5055033;28;19932;-76
2021/10/06 11:35:16;;;;;;;;;;;13.50;99.90;;;;;;5056604;28;19932;-77
2021/10/06 11:37:42;;;;;;;;;;;13.70;99.90;;;;;;5058260;28;20017;-76
2021/10/06 11:40:10;;;;;;;;;;;13.80;99.90;;;;;;5058188;28;19939;-76
2021/10/06 11:42:37;;;;;;;;;;;13.90;99.90;;;;;;5055907;28;19924;-77
2021/10/06 11:45:05;;;;;;;;;;;13.90;99.90;;;;;;5064363;28;19943;-76
2021/10/06 11:47:36;;;;;;;;;;;14.10;99.90;;;;;;5063939;28;19925;-76
2021/10/06 11:50:04;;;;;;;;;;;14.00;99.90;;;;;;5061110;28;20026;-76
2021/10/06 11:52:32;;;;;;;;;;;14.10;99.90;;;;;;5058052;28;20355;-76
2021/10/06 11:54:59;;;;;;;;;;;14.10;99.90;;;;;;5056668;28;19959;-76
2021/10/06 11:57:25;;;;;;;;;;;14.20;99.90;;;;;;5061622;28;19924;-76
2021/10/06 11:59:52;;;;;;;;;;;14.30;99.90;;;;;;5062730;28;19974;-76
2021/10/06 12:02:20;;;;;;;;;;;14.50;99.90;;;;;;5053075;28;20009;-76
2021/10/06 12:04:48;;;;;;;;;;;14.40;99.90;;;;;;5053714;28;20023;-76
2021/10/06 12:07:16;;;;;;;;;;;14.50;99.90;;;;;;5054706;28;20434;-76
2021/10/06 12:09:46;;;;;;;;;;;14.60;99.90;;;;;;5059647;28;20051;-76
2021/10/06 12:12:14;;;;;;;;;;;14.80;99.90;;;;;;5064488;28;19931;-76
2021/10/06 12:14:44;;;;;;;;;;;15.00;99.90;;;;;;5063141;28;19967;-76
2021/10/06 12:17:14;;;;;;;;;;;15.10;99.90;;;;;;5068496;28;19970;-77
2021/10/06 12:19:42;;;;;;;;;;;15.10;99.90;;;;;;5066882;28;19963;-77
2021/10/06 12:22:09;;;;;;;;;;;14.80;99.90;;;;;;5056770;28;20387;-76
2021/10/06 12:24:39;;;;;;;;;;;14.40;99.90;;;;;;5067544;28;19934;-76
2021/10/06 12:27:07;;;;;;;;;;;14.00;99.90;;;;;;5052561;28;19967;-76
2021/10/06 12:29:33;;;;;;;;;;;13.60;99.90;;;;;;5068956;28;20466;-77
2021/10/06 12:32:14;;;;;;;;;;;13.30;99.90;;;;;;5067268;28;20015;-76
2021/10/06 12:34:40;;;;;;;;;;;13.20;99.90;;;;;;5060699;28;19925;-76
2021/10/06 12:37:07;;;;;;;;;;;13.00;99.90;;;;;;5057332;28;20363;-77
2021/10/06 12:39:34;;;;;;;;;;;13.00;99.90;;;;;;5066184;28;19978;-76
2021/10/06 12:42:04;;;;;;;;;;;13.00;99.90;;;;;;5070677;28;20387;-76
2021/10/06 12:44:35;;;;;;;;;;;13.10;99.90;;;;;;5071099;28;19924;-76
2021/10/06 12:47:02;;;;;;;;;;;13.20;99.90;;;;;;5064453;28;19970;-76
2021/10/06 12:49:29;;;;;;;;;;;13.30;99.90;;;;;;5070204;28;20019;-76
2021/10/06 12:51:58;;;;;;;;;;;13.50;99.90;;;;;;5064426;28;20401;-77
2021/10/06 12:54:25;;;;;;;;;;;13.60;99.90;;;;;;5052279;28;19966;-77
2021/10/06 12:56:53;;;;;;;;;;;13.70;99.90;;;;;;5061634;28;20019;-78
2021/10/06 12:59:28;;;;;;;;;;;13.80;99.90;;;;;;5061468;28;19964;-77
2021/10/06 13:01:56;;;;;;;;;;;13.90;99.90;;;;;;5052902;28;20299;-75
2021/10/06 13:04:23;;;;;;;;;;;14.00;99.90;;;;;;5054325;28;19960;-77
2021/10/06 13:06:50;;;;;;;;;;;14.00;99.90;;;;;;5067918;28;19924;-76
2021/10/06 13:09:17;;;;;;;;;;;14.10;99.90;;;;;;5063245;28;20151;-77
2021/10/06 13:11:44;;;;;;;;;;;14.00;99.90;;;;;;5062221;28;19924;-77
2021/10/06 13:14:11;;;;;;;;;;;14.00;99.90;;;;;;5061057;28;20007;-76
2021/10/06 13:16:38;;;;;;;;;;;13.90;99.90;;;;;;5063020;28;19925;-77
2021/10/06 13:19:06;;;;;;;;;;;13.80;99.90;;;;;;5055424;28;19932;-77
2021/10/06 13:21:35;;;;;;;;;;;13.70;99.90;;;;;;5067532;28;19924;-74
2021/10/06 13:24:03;;;;;;;;;;;13.70;99.90;;;;;;5061205;28;19967;-74
2021/10/06 13:26:29;;;;;;;;;;;13.60;99.90;;;;;;5066767;28;19925;-75
2021/10/06 13:28:57;;;;;;;;;;;13.60;99.90;;;;;;5062827;28;19925;-74
2021/10/06 13:31:24;;;;;;;;;;;13.70;99.90;;;;;;5055208;28;19944;-77
2021/10/06 13:33:51;;;;;;;;;;;13.70;99.90;;;;;;5055120;28;20465;-74
2021/10/06 13:36:19;;;;;;;;;;;13.80;99.90;;;;;;5057760;28;20024;-74
2021/10/06 13:38:46;;;;;;;;;;;13.80;99.90;;;;;;5055647;28;19947;-75
2021/10/06 13:41:14;;;;;;;;;;;13.80;99.90;;;;;;5058180;28;20030;-75
2021/10/06 13:43:41;;;;;;;;;;;13.80;99.90;;;;;;5055977;28;19967;-75
2021/10/06 13:46:08;;;;;;;;;;;13.80;99.90;;;;;;5062476;28;19985;-75
2021/10/06 13:48:37;;;;;;;;;;;13.80;99.90;;;;;;5053911;28;19970;-75
2021/10/06 13:51:04;;;;;;;;;;;13.60;99.90;;;;;;5053811;28;19928;-75
2021/10/06 13:53:32;;;;;;;;;;;13.60;99.90;;;;;;5059615;28;19954;-75
2021/10/06 13:55:59;;;;;;;;;;;13.50;99.90;;;;;;5060299;28;20007;-76
2021/10/06 13:58:25;;;;;;;;;;;13.40;99.90;;;;;;5057939;28;19979;-75
2021/10/06 14:00:53;;;;;;;;;;;13.40;99.90;;;;;;5057414;28;20422;-75
2021/10/06 14:03:19;;;;;;;;;;;13.40;99.90;;;;;;5070061;28;20387;-75
2021/10/06 14:05:46;;;;;;;;;;;13.30;99.90;;;;;;5065238;28;20039;-76
2021/10/06 14:08:13;;;;;;;;;;;13.30;99.90;;;;;;5061106;28;19968;-75
2021/10/06 14:10:41;;;;;;;;;;;13.40;99.90;;;;;;5061866;28;20014;-75
2021/10/06 14:13:07;;;;;;;;;;;13.30;99.90;;;;;;5065935;28;19925;-76
2021/10/06 14:15:34;;;;;;;;;;;13.30;99.90;;;;;;5069787;28;20015;-76
2021/10/06 14:18:01;;;;;;;;;;;13.30;99.90;;;;;;5062867;28;19931;-76